Home > Products > Valid Products > TAF

000
FTUS45 KBYZ 211720
TAFSHR
TAF
KSHR 211720Z 2118/2218 VRB04KT P6SM SCT200
     FM212100 25011KT P6SM FEW100 BKN150
     FM220100 31016G25KT P6SM VCSH SCT090 BKN120
     FM220600 28007KT P6SM SCT120=



000
FTUS45 KBYZ 211720
TAFBIL
TAF
KBIL 211720Z 2118/2218 24013G20KT P6SM VCSH FEW100 BKN150
     FM212300 27023G35KT P6SM VCSH BKN080
     FM220300 27018KT P6SM FEW080 SCT120=



000
FTUS45 KBYZ 211720
TAFMLS
TAF
KMLS 211720Z 2118/2218 16008KT P6SM SCT250
     FM212100 24009KT P6SM BKN150
     FM220200 29018G27KT P6SM BKN090
     FM220800 27016KT P6SM SCT100=



000
FTUS45 KBYZ 211720
TAFLVM
TAF
KLVM 211720Z 2118/2218 23025G37KT P6SM VCSH SCT080 BKN120
     FM212200 27023G35KT P6SM VCSH BKN080
     FM220200 26019KT P6SM VCSH SCT070 BKN100
     FM220500 25015KT P6SM SCT100=



000
FTUS45 KBYZ 211140
TAFBIL
TAF
KBIL 211140Z 2112/2212 23011KT P6SM SCT200
     FM211900 24013G20KT P6SM FEW100 BKN150
     FM212330 27023G35KT P6SM VCSH BKN080
     FM220300 27018KT P6SM FEW080 SCT120=



000
FTUS45 KBYZ 211140
TAFMLS
TAF
KMLS 211140Z 2112/2212 VRB05KT P6SM SKC
     FM211500 16008KT P6SM SCT250
     FM212100 24009KT P6SM BKN150
     FM220200 29018G27KT P6SM BKN090
     FM220800 27016KT P6SM SCT100=



000
FTUS45 KBYZ 211140
TAFMLS
TAF
KMLS 211140Z 2112/2212 VRB05KT P6SM SKC
     FM211500 16008KT P6SM SCT250
     FM212100 24009KT P6SM BKN150
     FM220200 29018G27KT P6SM BKN090
     FM220800 27016KT P6SM SCT100=



000
FTUS45 KBYZ 211140
TAFLVM
TAF
KLVM 211140Z 2112/2212 23011KT P6SM FEW100 BKN200
     FM211400 23014G22KT P6SM VCSH SCT090 BKN150
     FM211800 23025G37KT P6SM VCSH SCT080 BKN120
     FM212200 27023G35KT P6SM VCSH BKN080
     FM220200 26019KT P6SM VCSH SCT070 BKN100
     FM220500 25015KT P6SM SCT100=



000
FTUS45 KBYZ 211140
TAFSHR
TAF
KSHR 211140Z 2112/2212 VRB04KT P6SM SCT200
     FM212100 25011KT P6SM FEW100 BKN150
     FM220100 31016G25KT P6SM VCSH SCT090 BKN120
     FM220600 28007KT P6SM SCT120=



000
FTUS45 KBYZ 211140
TAFBIL
TAF
KBIL 211140Z 2112/2212 23011KT P6SM SCT200
     FM211900 24013G20KT P6SM FEW100 BKN150
     FM212330 27023G35KT P6SM VCSH BKN080
     FM220300 27018KT P6SM FEW080 SCT120=



000
FTUS45 KBYZ 211140
TAFSHR
TAF
KSHR 211140Z 2112/2212 VRB04KT P6SM SCT200
     FM212100 25011KT P6SM FEW100 BKN150
     FM220100 31016G25KT P6SM VCSH SCT090 BKN120
     FM220600 28007KT P6SM SCT120=



000
FTUS45 KBYZ 211140
TAFBIL
TAF
KBIL 211140Z 2112/2212 23011KT P6SM SCT200
     FM211900 24013G20KT P6SM FEW100 BKN150
     FM212330 27023G35KT P6SM VCSH BKN080
     FM220300 27018KT P6SM FEW080 SCT120=



000
FTUS45 KBYZ 211140
TAFLVM
TAF
KLVM 211140Z 2112/2212 23011KT P6SM FEW100 BKN200
     FM211400 23014G22KT P6SM VCSH SCT090 BKN150
     FM211800 23025G37KT P6SM VCSH SCT080 BKN120
     FM212200 27023G35KT P6SM VCSH BKN080
     FM220200 26019KT P6SM VCSH SCT070 BKN100
     FM220500 25015KT P6SM SCT100=



000
FTUS45 KBYZ 211140
TAFSHR
TAF
KSHR 211140Z 2112/2212 VRB04KT P6SM SCT200
     FM212100 25011KT P6SM FEW100 BKN150
     FM220100 31016G25KT P6SM VCSH SCT090 BKN120
     FM220600 28007KT P6SM SCT120=



000
FTUS45 KBYZ 211140
TAFLVM
TAF
KLVM 211140Z 2112/2212 23011KT P6SM FEW100 BKN200
     FM211400 23014G22KT P6SM VCSH SCT090 BKN150
     FM211800 23025G37KT P6SM VCSH SCT080 BKN120
     FM212200 27023G35KT P6SM VCSH BKN080
     FM220200 26019KT P6SM VCSH SCT070 BKN100
     FM220500 25015KT P6SM SCT100=



000
FTUS45 KBYZ 211140
TAFBIL
TAF
KBIL 211140Z 2112/2212 23011KT P6SM SCT200
     FM211900 24013G20KT P6SM FEW100 BKN150
     FM212330 27023G35KT P6SM VCSH BKN080
     FM220300 27018KT P6SM FEW080 SCT120=



000
FTUS45 KBYZ 211140
TAFMLS
TAF
KMLS 211140Z 2112/2212 VRB05KT P6SM SKC
     FM211500 16008KT P6SM SCT250
     FM212100 24009KT P6SM BKN150
     FM220200 29018G27KT P6SM BKN090
     FM220800 27016KT P6SM SCT100=



000
FTUS45 KBYZ 211140
TAFMLS
TAF
KMLS 211140Z 2112/2212 VRB05KT P6SM SKC
     FM211500 16008KT P6SM SCT250
     FM212100 24009KT P6SM BKN150
     FM220200 29018G27KT P6SM BKN090
     FM220800 27016KT P6SM SCT100=



000
FTUS45 KBYZ 211140
TAFLVM
TAF
KLVM 211140Z 2112/2212 23011KT P6SM FEW100 BKN200
     FM211400 23014G22KT P6SM VCSH SCT090 BKN150
     FM211800 23025G37KT P6SM VCSH SCT080 BKN120
     FM212200 27023G35KT P6SM VCSH BKN080
     FM220200 26019KT P6SM VCSH SCT070 BKN100
     FM220500 25015KT P6SM SCT100=



000
FTUS45 KBYZ 211140
TAFSHR
TAF
KSHR 211140Z 2112/2212 VRB04KT P6SM SCT200
     FM212100 25011KT P6SM FEW100 BKN150
     FM220100 31016G25KT P6SM VCSH SCT090 BKN120
     FM220600 28007KT P6SM SCT120=



000
FTUS45 KBYZ 210520
TAFLVM
TAF
KLVM 210520Z 2106/2206 23011KT P6SM SKC
     FM211200 23014G22KT P6SM FEW100 SCT200
     FM211700 23020G30KT P6SM VCSH SCT080 BKN120
     FM212200 27022G32KT P6SM VCSH BKN080
     FM220300 26015KT P6SM VCSH SCT070 BKN100=



000
FTUS45 KBYZ 210520
TAFMLS
TAF
KMLS 210520Z 2106/2206 15009KT P6SM SKC
     FM212000 24009KT P6SM BKN200
     FM220200 29013G20KT P6SM BKN090=



000
FTUS45 KBYZ 210520
TAFSHR
TAF
KSHR 210520Z 2106/2206 VRB04KT P6SM SKC
     FM212100 24010KT P6SM FEW100 BKN200
     FM220100 31015G22KT P6SM VCSH SCT090 BKN150=



000
FTUS45 KBYZ 210520
TAFBIL
TAF
KBIL 210520Z 2106/2206 22009KT P6SM SKC
     FM211900 23011G18KT P6SM FEW100 SCT200
     FM212300 27018G26KT P6SM VCSH BKN080=



000
FTUS45 KBYZ 210520
TAFBIL
TAF
KBIL 210520Z 2106/2206 22009KT P6SM SKC
     FM211900 23011G18KT P6SM FEW100 SCT200
     FM212300 27018G26KT P6SM VCSH BKN080=



000
FTUS45 KBYZ 210520
TAFSHR
TAF
KSHR 210520Z 2106/2206 VRB04KT P6SM SKC
     FM212100 24010KT P6SM FEW100 BKN200
     FM220100 31015G22KT P6SM VCSH SCT090 BKN150=



000
FTUS45 KBYZ 210520
TAFMLS
TAF
KMLS 210520Z 2106/2206 15009KT P6SM SKC
     FM212000 24009KT P6SM BKN200
     FM220200 29013G20KT P6SM BKN090=



000
FTUS45 KBYZ 210520
TAFLVM
TAF
KLVM 210520Z 2106/2206 23011KT P6SM SKC
     FM211200 23014G22KT P6SM FEW100 SCT200
     FM211700 23020G30KT P6SM VCSH SCT080 BKN120
     FM212200 27022G32KT P6SM VCSH BKN080
     FM220300 26015KT P6SM VCSH SCT070 BKN100=



000
FTUS45 KBYZ 210500 AAA
TAFLVM
TAF AMD
KLVM 210500Z 2105/2124 25010KT P6SM SKC
     FM211200 24014G24KT P6SM SCT100
     FM211800 26023G27KT P6SM BKN250=



000
FTUS45 KBYZ 202320
TAFLVM
TAF
KLVM 202320Z 2100/2124 22011KT P6SM SKC
     FM210500 24014G24KT P6SM SCT100
     FM211800 26023G27KT P6SM BKN250=



000
FTUS45 KBYZ 202320
TAFBIL
TAF
KBIL 202320Z 2100/2124 22007KT P6SM SKC
     FM211200 23013KT P6SM FEW100=



000
FTUS45 KBYZ 202320
TAFSHR
TAF
KSHR 202320Z 2100/2124 VRB03KT P6SM SKC=



000
FTUS45 KBYZ 202320
TAFMLS
TAF
KMLS 202320Z 2100/2124 VRB06KT P6SM SKC
     FM211800 32012KT P6SM BKN250=



000
FTUS45 KBYZ 202320
TAFLVM
TAF
KLVM 202320Z 2100/2124 22011KT P6SM SKC
     FM210500 24014G24KT P6SM SCT100
     FM211800 26023G27KT P6SM BKN250=



000
FTUS45 KBYZ 202320
TAFBIL
TAF
KBIL 202320Z 2100/2124 22007KT P6SM SKC
     FM211200 23013KT P6SM FEW100=



000
FTUS45 KBYZ 202320
TAFMLS
TAF
KMLS 202320Z 2100/2124 VRB06KT P6SM SKC
     FM211800 32012KT P6SM BKN250=



000
FTUS45 KBYZ 202320
TAFSHR
TAF
KSHR 202320Z 2100/2124 VRB03KT P6SM SKC=



000
FTUS45 KBYZ 201727
TAFBIL
TAF
KBIL 201727Z 2018/2118 22014KT P6SM SKC
     FM210001 23011KT P6SM SKC
     FM211200 23013KT P6SM FEW100=



000
FTUS45 KBYZ 201727
TAFLVM
TAF
KLVM 201727Z 2018/2118 11008KT P6SM SKC
     FM201900 22015KT P6SM SKC
     FM210100 25008KT P6SM SKC
     FM211500 24015KT P6SM SCT100=



000
FTUS45 KBYZ 201727
TAFMLS
TAF
KMLS 201727Z 2018/2118 16008KT P6SM SKC
     FM210100 14005KT P6SM SKC=



000
FTUS45 KBYZ 201727
TAFSHR
TAF
KSHR 201727Z 2018/2118 VRB03KT P6SM SKC=



000
FTUS45 KBYZ 201727
TAFSHR
TAF
KSHR 201727Z 2018/2118 VRB03KT P6SM SKC=



000
FTUS45 KBYZ 201727
TAFMLS
TAF
KMLS 201727Z 2018/2118 16008KT P6SM SKC
     FM210100 14005KT P6SM SKC=



000
FTUS45 KBYZ 201727
TAFBIL
TAF
KBIL 201727Z 2018/2118 22014KT P6SM SKC
     FM210001 23011KT P6SM SKC
     FM211200 23013KT P6SM FEW100=



000
FTUS45 KBYZ 201727
TAFLVM
TAF
KLVM 201727Z 2018/2118 11008KT P6SM SKC
     FM201900 22015KT P6SM SKC
     FM210100 25008KT P6SM SKC
     FM211500 24015KT P6SM SCT100=



000
FTUS45 KBYZ 201120
TAFSHR
TAF
KSHR 201120Z 2012/2112 VRB04KT P6SM SKC=



000
FTUS45 KBYZ 201120
TAFMLS
TAF
KMLS 201120Z 2012/2112 15009KT P6SM SKC=



000
FTUS45 KBYZ 201120
TAFBIL
TAF
KBIL 201120Z 2012/2112 22010KT P6SM SKC=



000
FTUS45 KBYZ 201120
TAFSHR
TAF
KSHR 201120Z 2012/2112 VRB04KT P6SM SKC=



000
FTUS45 KBYZ 201120
TAFLVM
TAF
KLVM 201120Z 2012/2112 27006KT P6SM SKC
     FM201800 23013G20KT P6SM SKC
     FM210100 23011KT P6SM SCT200=



000
FTUS45 KBYZ 201120
TAFLVM
TAF
KLVM 201120Z 2012/2112 27006KT P6SM SKC
     FM201800 23013G20KT P6SM SKC
     FM210100 23011KT P6SM SCT200=



000
FTUS45 KBYZ 201120
TAFBIL
TAF
KBIL 201120Z 2012/2112 22010KT P6SM SKC=



000
FTUS45 KBYZ 201120
TAFMLS
TAF
KMLS 201120Z 2012/2112 15009KT P6SM SKC=



000
FTUS45 KBYZ 200521
TAFBIL
TAF
KBIL 200521Z 2006/2106 22009KT P6SM SKC=



000
FTUS45 KBYZ 200521
TAFMLS
TAF
KMLS 200521Z 2006/2106 15007KT P6SM SKC=



000
FTUS45 KBYZ 200521
TAFSHR
TAF
KSHR 200521Z 2006/2106 VRB04KT P6SM SKC=



000
FTUS45 KBYZ 200521
TAFBIL
TAF
KBIL 200521Z 2006/2106 22009KT P6SM SKC=



000
FTUS45 KBYZ 200521
TAFLVM
TAF
KLVM 200521Z 2006/2106 27007KT P6SM SKC
     FM201800 23013G20KT P6SM SKC
     FM210100 22010KT P6SM SCT200=



000
FTUS45 KBYZ 200521
TAFSHR
TAF
KSHR 200521Z 2006/2106 VRB04KT P6SM SKC=



000
FTUS45 KBYZ 200521
TAFLVM
TAF
KLVM 200521Z 2006/2106 27007KT P6SM SKC
     FM201800 23013G20KT P6SM SKC
     FM210100 22010KT P6SM SCT200=



000
FTUS45 KBYZ 200521
TAFMLS
TAF
KMLS 200521Z 2006/2106 15007KT P6SM SKC=



000
FTUS45 KBYZ 200521
TAFSHR
TAF
KSHR 200521Z 2006/2106 VRB04KT P6SM SKC=



000
FTUS45 KBYZ 200521
TAFLVM
TAF
KLVM 200521Z 2006/2106 27007KT P6SM SKC
     FM201800 23013G20KT P6SM SKC
     FM210100 22010KT P6SM SCT200=



000
FTUS45 KBYZ 200521
TAFMLS
TAF
KMLS 200521Z 2006/2106 15007KT P6SM SKC=



000
FTUS45 KBYZ 200521
TAFBIL
TAF
KBIL 200521Z 2006/2106 22009KT P6SM SKC=



000
FTUS45 KBYZ 192320
TAFLVM
TAF
KLVM 192320Z 2000/2024 30007KT P6SM SKC
     FM201200 25014KT P6SM SKC
     FM201800 24013G20KT P6SM SKC=



000
FTUS45 KBYZ 192320
TAFBIL
TAF
KBIL 192320Z 2000/2024 VRB06KT P6SM SKC
     FM200500 23008KT P6SM SKC=



000
FTUS45 KBYZ 192320
TAFLVM
TAF
KLVM 192320Z 2000/2024 30007KT P6SM SKC
     FM201200 25014KT P6SM SKC
     FM201800 24013G20KT P6SM SKC=



000
FTUS45 KBYZ 192320
TAFSHR
TAF
KSHR 192320Z 2000/2024 VRB04KT P6SM SKC=



000
FTUS45 KBYZ 192320
TAFSHR
TAF
KSHR 192320Z 2000/2024 VRB04KT P6SM SKC=



000
FTUS45 KBYZ 192320
TAFMLS
TAF
KMLS 192320Z 2000/2024 VRB05KT P6SM SKC=



000
FTUS45 KBYZ 192320
TAFBIL
TAF
KBIL 192320Z 2000/2024 VRB06KT P6SM SKC
     FM200500 23008KT P6SM SKC=



000
FTUS45 KBYZ 192320
TAFMLS
TAF
KMLS 192320Z 2000/2024 VRB05KT P6SM SKC=



000
FTUS45 KBYZ 192320
TAFLVM
TAF
KLVM 192320Z 2000/2024 30007KT P6SM SKC
     FM201200 25014KT P6SM SKC
     FM201800 24013G20KT P6SM SKC=



000
FTUS45 KBYZ 192320
TAFSHR
TAF
KSHR 192320Z 2000/2024 VRB04KT P6SM SKC=



000
FTUS45 KBYZ 192320
TAFMLS
TAF
KMLS 192320Z 2000/2024 VRB05KT P6SM SKC=



000
FTUS45 KBYZ 192320
TAFBIL
TAF
KBIL 192320Z 2000/2024 VRB06KT P6SM SKC
     FM200500 23008KT P6SM SKC=



000
FTUS45 KBYZ 192320
TAFBIL
TAF
KBIL 192320Z 2000/2024 VRB06KT P6SM SKC
     FM200500 23008KT P6SM SKC=



000
FTUS45 KBYZ 192320
TAFSHR
TAF
KSHR 192320Z 2000/2024 VRB04KT P6SM SKC=



000
FTUS45 KBYZ 192320
TAFMLS
TAF
KMLS 192320Z 2000/2024 VRB05KT P6SM SKC=



000
FTUS45 KBYZ 192320
TAFLVM
TAF
KLVM 192320Z 2000/2024 30007KT P6SM SKC
     FM201200 25014KT P6SM SKC
     FM201800 24013G20KT P6SM SKC=



000
FTUS45 KBYZ 191725
TAFBIL
TAF
KBIL 191725Z 1918/2018 23008KT P6SM SKC
     FM201200 23010KT P6SM SKC=



000
FTUS45 KBYZ 191725
TAFMLS
TAF
KMLS 191725Z 1918/2018 19004KT P6SM SKC
     FM200100 15006KT P6SM SKC=



000
FTUS45 KBYZ 191725
TAFLVM
TAF
KLVM 191725Z 1918/2018 29013KT P6SM SKC
     FM201200 25014KT P6SM SKC=



000
FTUS45 KBYZ 191725
TAFSHR
TAF
KSHR 191725Z 1918/2018 13004KT P6SM SKC
     FM200100 VRB04KT P6SM SKC=



000
FTUS45 KBYZ 191725
TAFMLS
TAF
KMLS 191725Z 1918/2018 19004KT P6SM SKC
     FM200100 15006KT P6SM SKC=



000
FTUS45 KBYZ 191725
TAFSHR
TAF
KSHR 191725Z 1918/2018 13004KT P6SM SKC
     FM200100 VRB04KT P6SM SKC=



000
FTUS45 KBYZ 191725
TAFLVM
TAF
KLVM 191725Z 1918/2018 29013KT P6SM SKC
     FM201200 25014KT P6SM SKC=



000
FTUS45 KBYZ 191725
TAFBIL
TAF
KBIL 191725Z 1918/2018 23008KT P6SM SKC
     FM201200 23010KT P6SM SKC=



000
FTUS45 KBYZ 191123
TAFLVM
TAF
KLVM 191123Z 1912/2012 30009KT P6SM SKC
     FM191700 23009KT P6SM SKC=



000
FTUS45 KBYZ 191123
TAFMLS
TAF
KMLS 191123Z 1912/2012 VRB05KT P6SM SKC
     FM192200 14007KT P6SM SKC=



000
FTUS45 KBYZ 191123
TAFBIL
TAF
KBIL 191123Z 1912/2012 21008KT P6SM SKC=



000
FTUS45 KBYZ 191123
TAFSHR
TAF
KSHR 191123Z 1912/2012 VRB04KT P6SM SKC=



000
FTUS45 KBYZ 191123
TAFBIL
TAF
KBIL 191123Z 1912/2012 21008KT P6SM SKC=



000
FTUS45 KBYZ 191123
TAFSHR
TAF
KSHR 191123Z 1912/2012 VRB04KT P6SM SKC=



000
FTUS45 KBYZ 191123
TAFMLS
TAF
KMLS 191123Z 1912/2012 VRB05KT P6SM SKC
     FM192200 14007KT P6SM SKC=



000
FTUS45 KBYZ 191123
TAFLVM
TAF
KLVM 191123Z 1912/2012 30009KT P6SM SKC
     FM191700 23009KT P6SM SKC=



000
FTUS45 KBYZ 190520
TAFLVM
TAF
KLVM 190520Z 1906/2006 32005KT P6SM SKC
     FM191600 25009KT P6SM SKC=



000
FTUS45 KBYZ 190520
TAFBIL
TAF
KBIL 190520Z 1906/2006 22007KT P6SM SKC=



000
FTUS45 KBYZ 190520
TAFSHR
TAF
KSHR 190520Z 1906/2006 VRB03KT P6SM SKC=



000
FTUS45 KBYZ 190520
TAFSHR
TAF
KSHR 190520Z 1906/2006 VRB03KT P6SM SKC=



000
FTUS45 KBYZ 190520
TAFMLS
TAF
KMLS 190520Z 1906/2006 27006KT P6SM SKC
     FM192200 14006KT P6SM SKC=



000
FTUS45 KBYZ 190520
TAFMLS
TAF
KMLS 190520Z 1906/2006 27006KT P6SM SKC
     FM192200 14006KT P6SM SKC=



000
FTUS45 KBYZ 190520
TAFBIL
TAF
KBIL 190520Z 1906/2006 22007KT P6SM SKC=



000
FTUS45 KBYZ 190520
TAFLVM
TAF
KLVM 190520Z 1906/2006 32005KT P6SM SKC
     FM191600 25009KT P6SM SKC=



000
FTUS45 KBYZ 182320
TAFLVM
TAF
KLVM 182320Z 1900/1924 25012KT P6SM FEW110
     FM190200 32005KT P6SM SKC
     FM191400 23006KT P6SM SKC=



000
FTUS45 KBYZ 182320
TAFBIL
TAF
KBIL 182320Z 1900/1924 01007KT P6SM FEW120 BKN250
     FM190200 25007KT P6SM SKC
     FM191800 19008KT P6SM SKC=



000
FTUS45 KBYZ 182320
TAFSHR
TAF
KSHR 182320Z 1900/1924 00000KT P6SM FEW100 SCT250
     FM191800 15005KT P6SM SKC=



000
FTUS45 KBYZ 182320
TAFMLS
TAF
KMLS 182320Z 1900/1924 27006KT P6SM SCT100
     FM192200 15005KT P6SM SKC=



000
FTUS45 KBYZ 182320
TAFSHR
TAF
KSHR 182320Z 1900/1924 00000KT P6SM FEW100 SCT250
     FM191800 15005KT P6SM SKC=



000
FTUS45 KBYZ 182320
TAFBIL
TAF
KBIL 182320Z 1900/1924 01007KT P6SM FEW120 BKN250
     FM190200 25007KT P6SM SKC
     FM191800 19008KT P6SM SKC=



000
FTUS45 KBYZ 182320
TAFLVM
TAF
KLVM 182320Z 1900/1924 25012KT P6SM FEW110
     FM190200 32005KT P6SM SKC
     FM191400 23006KT P6SM SKC=



000
FTUS45 KBYZ 182320
TAFMLS
TAF
KMLS 182320Z 1900/1924 27006KT P6SM SCT100
     FM192200 15005KT P6SM SKC=



000
FTUS45 KBYZ 182237 AAA
TAFBIL
TAF AMD
KBIL 182237Z 1823/1918 22009KT P6SM FEW120 BKN250
     FM190200 25008KT P6SM FEW120
     FM190600 23007KT P6SM SKC=



000
FTUS45 KBYZ 182237 AAA
TAFBIL
TAF AMD
KBIL 182237Z 1823/1918 22009KT P6SM FEW120 BKN250
     FM190200 25008KT P6SM FEW120
     FM190600 23007KT P6SM SKC=



    US Dept of Commerce
    National Oceanic and Atmospheric Administration
    National Weather Service
    1325 East West Highway
    Silver Spring, MD 20910
    Page Author: NWS Internet Services Team
Disclaimer
Information Quality
Credits
Glossary
Privacy Policy
Freedom of Information Act (FOIA)
About Us
Career Opportunities